sensor_id;sensor_type;location;lat;lon;timestamp;P1;durP1;ratioP1;P2;durP2;ratioP2
39772;SDS011;25451;51.960;6.250;2024-03-22T00:02:08;25.13;;;11.13;;
39772;SDS011;25451;51.960;6.250;2024-03-22T00:04:36;27.83;;;11.57;;
39772;SDS011;25451;51.960;6.250;2024-03-22T00:07:02;30.02;;;11.65;;
39772;SDS011;25451;51.960;6.250;2024-03-22T00:09:28;29.30;;;11.57;;
39772;SDS011;25451;51.960;6.250;2024-03-22T00:11:53;25.83;;;11.23;;
39772;SDS011;25451;51.960;6.250;2024-03-22T00:14:19;28.13;;;11.77;;
39772;SDS011;25451;51.960;6.250;2024-03-22T00:16:44;28.20;;;11.03;;
39772;SDS011;25451;51.960;6.250;2024-03-22T00:19:09;28.33;;;12.17;;
39772;SDS011;25451;51.960;6.250;2024-03-22T00:21:34;29.05;;;11.02;;
39772;SDS011;25451;51.960;6.250;2024-03-22T00:24:00;25.80;;;11.50;;
39772;SDS011;25451;51.960;6.250;2024-03-22T00:26:26;29.17;;;10.77;;
39772;SDS011;25451;51.960;6.250;2024-03-22T00:28:52;28.23;;;10.45;;
39772;SDS011;25451;51.960;6.250;2024-03-22T00:31:17;30.27;;;11.97;;
39772;SDS011;25451;51.960;6.250;2024-03-22T00:33:43;31.67;;;11.43;;
39772;SDS011;25451;51.960;6.250;2024-03-22T00:36:08;29.20;;;11.93;;
39772;SDS011;25451;51.960;6.250;2024-03-22T00:38:34;28.00;;;11.43;;
39772;SDS011;25451;51.960;6.250;2024-03-22T00:40:59;29.17;;;11.33;;
39772;SDS011;25451;51.960;6.250;2024-03-22T00:43:24;30.93;;;11.17;;
39772;SDS011;25451;51.960;6.250;2024-03-22T00:45:50;30.10;;;11.70;;
39772;SDS011;25451;51.960;6.250;2024-03-22T00:48:15;27.93;;;11.23;;
39772;SDS011;25451;51.960;6.250;2024-03-22T00:50:40;30.65;;;11.60;;
39772;SDS011;25451;51.960;6.250;2024-03-22T00:53:06;28.93;;;11.47;;
39772;SDS011;25451;51.960;6.250;2024-03-22T00:55:33;29.67;;;12.50;;
39772;SDS011;25451;51.960;6.250;2024-03-22T00:57:58;28.57;;;11.83;;
39772;SDS011;25451;51.960;6.250;2024-03-22T01:00:24;30.07;;;12.13;;
39772;SDS011;25451;51.960;6.250;2024-03-22T01:02:49;29.02;;;11.93;;
39772;SDS011;25451;51.960;6.250;2024-03-22T01:05:15;32.60;;;12.70;;
39772;SDS011;25451;51.960;6.250;2024-03-22T01:07:41;35.35;;;12.27;;
39772;SDS011;25451;51.960;6.250;2024-03-22T01:10:06;32.40;;;12.37;;
39772;SDS011;25451;51.960;6.250;2024-03-22T01:12:32;29.33;;;12.00;;
39772;SDS011;25451;51.960;6.250;2024-03-22T01:14:57;30.45;;;11.77;;
39772;SDS011;25451;51.960;6.250;2024-03-22T01:17:23;31.02;;;12.63;;
39772;SDS011;25451;51.960;6.250;2024-03-22T01:19:48;32.80;;;12.83;;
39772;SDS011;25451;51.960;6.250;2024-03-22T01:22:14;35.07;;;12.33;;
39772;SDS011;25451;51.960;6.250;2024-03-22T01:24:39;32.60;;;12.65;;
39772;SDS011;25451;51.960;6.250;2024-03-22T01:27:04;34.73;;;12.23;;
39772;SDS011;25451;51.960;6.250;2024-03-22T01:29:30;31.80;;;12.80;;
39772;SDS011;25451;51.960;6.250;2024-03-22T01:31:57;33.85;;;13.35;;
39772;SDS011;25451;51.960;6.250;2024-03-22T01:34:22;38.43;;;13.20;;
39772;SDS011;25451;51.960;6.250;2024-03-22T01:36:48;31.00;;;12.43;;
39772;SDS011;25451;51.960;6.250;2024-03-22T01:39:13;28.33;;;11.63;;
39772;SDS011;25451;51.960;6.250;2024-03-22T01:41:39;35.13;;;12.88;;
39772;SDS011;25451;51.960;6.250;2024-03-22T01:44:05;31.37;;;12.67;;
39772;SDS011;25451;51.960;6.250;2024-03-22T01:46:30;32.90;;;12.63;;
39772;SDS011;25451;51.960;6.250;2024-03-22T01:48:56;33.65;;;12.32;;
39772;SDS011;25451;51.960;6.250;2024-03-22T01:51:21;34.13;;;12.83;;
39772;SDS011;25451;51.960;6.250;2024-03-22T01:53:46;31.50;;;12.17;;
39772;SDS011;25451;51.960;6.250;2024-03-22T01:56:12;34.03;;;12.73;;
39772;SDS011;25451;51.960;6.250;2024-03-22T01:58:38;30.02;;;11.82;;
39772;SDS011;25451;51.960;6.250;2024-03-22T02:01:05;29.35;;;11.63;;
39772;SDS011;25451;51.960;6.250;2024-03-22T02:03:30;31.30;;;12.63;;
39772;SDS011;25451;51.960;6.250;2024-03-22T02:05:56;30.50;;;12.23;;
39772;SDS011;25451;51.960;6.250;2024-03-22T02:08:21;33.07;;;12.30;;
39772;SDS011;25451;51.960;6.250;2024-03-22T02:10:46;33.07;;;13.07;;
39772;SDS011;25451;51.960;6.250;2024-03-22T02:13:12;33.50;;;12.60;;
39772;SDS011;25451;51.960;6.250;2024-03-22T02:15:37;28.67;;;11.83;;
39772;SDS011;25451;51.960;6.250;2024-03-22T02:18:03;32.63;;;11.95;;
39772;SDS011;25451;51.960;6.250;2024-03-22T02:20:28;33.70;;;12.30;;
39772;SDS011;25451;51.960;6.250;2024-03-22T02:22:54;33.90;;;12.27;;
39772;SDS011;25451;51.960;6.250;2024-03-22T02:25:19;32.50;;;11.90;;
39772;SDS011;25451;51.960;6.250;2024-03-22T02:27:44;31.17;;;12.13;;
39772;SDS011;25451;51.960;6.250;2024-03-22T02:30:10;34.40;;;12.43;;
39772;SDS011;25451;51.960;6.250;2024-03-22T02:32:35;31.33;;;12.37;;
39772;SDS011;25451;51.960;6.250;2024-03-22T02:35:01;35.15;;;12.60;;
39772;SDS011;25451;51.960;6.250;2024-03-22T02:37:27;30.27;;;11.98;;
39772;SDS011;25451;51.960;6.250;2024-03-22T02:39:53;31.47;;;11.87;;
39772;SDS011;25451;51.960;6.250;2024-03-22T02:42:18;30.95;;;11.90;;
39772;SDS011;25451;51.960;6.250;2024-03-22T02:44:43;32.10;;;12.70;;
39772;SDS011;25451;51.960;6.250;2024-03-22T02:47:09;31.03;;;12.40;;
39772;SDS011;25451;51.960;6.250;2024-03-22T02:49:35;33.03;;;12.07;;
39772;SDS011;25451;51.960;6.250;2024-03-22T02:52:00;29.87;;;11.77;;
39772;SDS011;25451;51.960;6.250;2024-03-22T02:54:26;33.33;;;12.33;;
39772;SDS011;25451;51.960;6.250;2024-03-22T02:56:51;31.23;;;12.63;;
39772;SDS011;25451;51.960;6.250;2024-03-22T02:59:16;30.77;;;12.57;;
39772;SDS011;25451;51.960;6.250;2024-03-22T03:01:41;31.83;;;12.57;;
39772;SDS011;25451;51.960;6.250;2024-03-22T03:04:07;31.43;;;12.67;;
39772;SDS011;25451;51.960;6.250;2024-03-22T03:06:32;32.43;;;12.23;;
39772;SDS011;25451;51.960;6.250;2024-03-22T03:08:57;30.33;;;12.10;;
39772;SDS011;25451;51.960;6.250;2024-03-22T03:11:23;31.67;;;13.33;;
39772;SDS011;25451;51.960;6.250;2024-03-22T03:13:48;34.33;;;12.70;;
39772;SDS011;25451;51.960;6.250;2024-03-22T03:16:13;30.07;;;12.00;;
39772;SDS011;25451;51.960;6.250;2024-03-22T03:18:38;31.20;;;12.33;;
39772;SDS011;25451;51.960;6.250;2024-03-22T03:21:04;30.73;;;12.50;;
39772;SDS011;25451;51.960;6.250;2024-03-22T03:23:30;29.20;;;11.33;;
39772;SDS011;25451;51.960;6.250;2024-03-22T03:25:55;31.90;;;11.77;;
39772;SDS011;25451;51.960;6.250;2024-03-22T03:28:20;28.90;;;11.93;;
39772;SDS011;25451;51.960;6.250;2024-03-22T03:30:45;31.60;;;12.63;;
39772;SDS011;25451;51.960;6.250;2024-03-22T03:33:11;31.03;;;12.83;;
39772;SDS011;25451;51.960;6.250;2024-03-22T03:35:36;32.30;;;12.73;;
39772;SDS011;25451;51.960;6.250;2024-03-22T03:38:01;29.30;;;11.63;;
39772;SDS011;25451;51.960;6.250;2024-03-22T03:40:26;30.37;;;12.57;;
39772;SDS011;25451;51.960;6.250;2024-03-22T03:42:52;31.80;;;12.32;;
39772;SDS011;25451;51.960;6.250;2024-03-22T03:45:18;33.53;;;12.82;;
39772;SDS011;25451;51.960;6.250;2024-03-22T03:47:43;29.30;;;12.23;;
39772;SDS011;25451;51.960;6.250;2024-03-22T03:50:09;32.93;;;13.13;;
39772;SDS011;25451;51.960;6.250;2024-03-22T03:52:34;32.57;;;12.77;;
39772;SDS011;25451;51.960;6.250;2024-03-22T03:55:00;29.00;;;12.33;;
39772;SDS011;25451;51.960;6.250;2024-03-22T03:57:25;33.93;;;12.83;;
39772;SDS011;25451;51.960;6.250;2024-03-22T03:59:51;34.03;;;13.02;;
39772;SDS011;25451;51.960;6.250;2024-03-22T04:02:16;30.67;;;12.77;;
39772;SDS011;25451;51.960;6.250;2024-03-22T04:04:41;34.07;;;13.23;;
39772;SDS011;25451;51.960;6.250;2024-03-22T04:07:07;27.67;;;12.10;;
39772;SDS011;25451;51.960;6.250;2024-03-22T04:09:32;31.97;;;12.47;;
39772;SDS011;25451;51.960;6.250;2024-03-22T04:11:58;33.15;;;13.45;;
39772;SDS011;25451;51.960;6.250;2024-03-22T04:14:24;32.97;;;13.67;;
39772;SDS011;25451;51.960;6.250;2024-03-22T04:16:50;33.72;;;13.55;;
39772;SDS011;25451;51.960;6.250;2024-03-22T04:19:15;29.80;;;12.63;;
39772;SDS011;25451;51.960;6.250;2024-03-22T04:21:40;29.00;;;12.73;;
39772;SDS011;25451;51.960;6.250;2024-03-22T04:24:05;31.10;;;12.97;;
39772;SDS011;25451;51.960;6.250;2024-03-22T04:26:31;29.13;;;13.07;;
39772;SDS011;25451;51.960;6.250;2024-03-22T04:28:56;32.78;;;13.15;;
39772;SDS011;25451;51.960;6.250;2024-03-22T04:31:22;35.10;;;13.37;;
39772;SDS011;25451;51.960;6.250;2024-03-22T04:33:47;33.27;;;13.13;;
39772;SDS011;25451;51.960;6.250;2024-03-22T04:36:12;31.20;;;13.03;;
39772;SDS011;25451;51.960;6.250;2024-03-22T04:38:38;32.00;;;13.43;;
39772;SDS011;25451;51.960;6.250;2024-03-22T04:41:03;33.13;;;13.37;;
39772;SDS011;25451;51.960;6.250;2024-03-22T04:43:28;31.92;;;13.48;;
39772;SDS011;25451;51.960;6.250;2024-03-22T04:45:54;30.45;;;13.32;;
39772;SDS011;25451;51.960;6.250;2024-03-22T04:48:20;30.00;;;12.87;;
39772;SDS011;25451;51.960;6.250;2024-03-22T04:50:46;31.87;;;13.40;;
39772;SDS011;25451;51.960;6.250;2024-03-22T04:53:14;31.00;;;12.88;;
39772;SDS011;25451;51.960;6.250;2024-03-22T04:55:40;33.75;;;13.57;;
39772;SDS011;25451;51.960;6.250;2024-03-22T04:58:11;31.47;;;13.00;;
39772;SDS011;25451;51.960;6.250;2024-03-22T05:00:37;30.35;;;12.80;;
39772;SDS011;25451;51.960;6.250;2024-03-22T05:03:03;30.23;;;12.90;;
39772;SDS011;25451;51.960;6.250;2024-03-22T05:05:28;30.58;;;13.20;;
39772;SDS011;25451;51.960;6.250;2024-03-22T05:07:54;34.07;;;13.20;;
39772;SDS011;25451;51.960;6.250;2024-03-22T05:10:19;32.07;;;13.27;;
39772;SDS011;25451;51.960;6.250;2024-03-22T05:12:44;32.63;;;13.13;;
39772;SDS011;25451;51.960;6.250;2024-03-22T05:15:09;30.73;;;13.30;;
39772;SDS011;25451;51.960;6.250;2024-03-22T05:17:35;30.50;;;13.07;;
39772;SDS011;25451;51.960;6.250;2024-03-22T05:20:00;29.37;;;13.10;;
39772;SDS011;25451;51.960;6.250;2024-03-22T05:22:27;31.60;;;12.95;;
39772;SDS011;25451;51.960;6.250;2024-03-22T05:24:52;34.53;;;13.70;;
39772;SDS011;25451;51.960;6.250;2024-03-22T05:27:18;28.70;;;12.93;;
39772;SDS011;25451;51.960;6.250;2024-03-22T05:29:43;29.53;;;13.57;;
39772;SDS011;25451;51.960;6.250;2024-03-22T05:32:09;29.55;;;12.98;;
39772;SDS011;25451;51.960;6.250;2024-03-22T05:34:35;31.53;;;13.47;;
39772;SDS011;25451;51.960;6.250;2024-03-22T05:37:01;29.02;;;12.40;;
39772;SDS011;25451;51.960;6.250;2024-03-22T05:39:27;30.95;;;12.52;;
39772;SDS011;25451;51.960;6.250;2024-03-22T05:41:52;29.27;;;13.30;;
39772;SDS011;25451;51.960;6.250;2024-03-22T05:44:19;30.30;;;12.95;;
39772;SDS011;25451;51.960;6.250;2024-03-22T05:46:44;27.90;;;12.40;;
39772;SDS011;25451;51.960;6.250;2024-03-22T05:49:09;33.07;;;13.20;;
39772;SDS011;25451;51.960;6.250;2024-03-22T05:51:35;32.30;;;13.70;;
39772;SDS011;25451;51.960;6.250;2024-03-22T05:54:00;30.23;;;13.07;;
39772;SDS011;25451;51.960;6.250;2024-03-22T05:56:25;31.47;;;13.47;;
39772;SDS011;25451;51.960;6.250;2024-03-22T05:58:51;30.38;;;13.25;;
39772;SDS011;25451;51.960;6.250;2024-03-22T06:01:16;34.25;;;13.45;;
39772;SDS011;25451;51.960;6.250;2024-03-22T06:03:41;29.93;;;13.37;;
39772;SDS011;25451;51.960;6.250;2024-03-22T06:06:07;29.67;;;13.40;;
39772;SDS011;25451;51.960;6.250;2024-03-22T06:08:32;29.27;;;12.63;;
39772;SDS011;25451;51.960;6.250;2024-03-22T06:10:59;29.98;;;13.20;;
39772;SDS011;25451;51.960;6.250;2024-03-22T06:13:25;27.88;;;12.75;;
39772;SDS011;25451;51.960;6.250;2024-03-22T06:15:50;29.83;;;12.70;;
39772;SDS011;25451;51.960;6.250;2024-03-22T06:18:16;29.87;;;12.97;;
39772;SDS011;25451;51.960;6.250;2024-03-22T06:20:41;27.50;;;11.87;;
39772;SDS011;25451;51.960;6.250;2024-03-22T06:23:10;28.33;;;12.70;;
39772;SDS011;25451;51.960;6.250;2024-03-22T06:25:35;27.33;;;11.93;;
39772;SDS011;25451;51.960;6.250;2024-03-22T06:28:01;26.97;;;12.03;;
39772;SDS011;25451;51.960;6.250;2024-03-22T06:30:26;27.40;;;12.53;;
39772;SDS011;25451;51.960;6.250;2024-03-22T06:32:52;27.65;;;12.05;;
39772;SDS011;25451;51.960;6.250;2024-03-22T06:35:18;27.47;;;12.03;;
39772;SDS011;25451;51.960;6.250;2024-03-22T06:37:43;28.97;;;12.10;;
39772;SDS011;25451;51.960;6.250;2024-03-22T06:40:09;26.80;;;11.15;;
39772;SDS011;25451;51.960;6.250;2024-03-22T06:42:34;25.52;;;11.32;;
39772;SDS011;25451;51.960;6.250;2024-03-22T06:45:00;23.13;;;10.73;;
39772;SDS011;25451;51.960;6.250;2024-03-22T06:47:25;23.27;;;10.43;;
39772;SDS011;25451;51.960;6.250;2024-03-22T06:49:50;23.87;;;9.67;;
39772;SDS011;25451;51.960;6.250;2024-03-22T06:52:16;19.87;;;9.57;;
39772;SDS011;25451;51.960;6.250;2024-03-22T06:54:43;22.58;;;9.82;;
39772;SDS011;25451;51.960;6.250;2024-03-22T06:57:08;22.93;;;9.37;;
39772;SDS011;25451;51.960;6.250;2024-03-22T06:59:33;20.23;;;8.93;;
39772;SDS011;25451;51.960;6.250;2024-03-22T07:01:59;20.88;;;9.02;;
39772;SDS011;25451;51.960;6.250;2024-03-22T07:04:24;20.90;;;8.93;;
39772;SDS011;25451;51.960;6.250;2024-03-22T07:06:49;18.53;;;8.50;;
39772;SDS011;25451;51.960;6.250;2024-03-22T07:09:15;20.23;;;8.63;;
39772;SDS011;25451;51.960;6.250;2024-03-22T07:11:40;19.83;;;8.47;;
39772;SDS011;25451;51.960;6.250;2024-03-22T07:14:05;21.20;;;8.77;;
39772;SDS011;25451;51.960;6.250;2024-03-22T07:16:31;17.57;;;8.47;;
39772;SDS011;25451;51.960;6.250;2024-03-22T07:18:56;21.60;;;9.50;;
39772;SDS011;25451;51.960;6.250;2024-03-22T07:21:21;18.83;;;8.50;;
39772;SDS011;25451;51.960;6.250;2024-03-22T07:23:47;19.43;;;8.40;;
39772;SDS011;25451;51.960;6.250;2024-03-22T07:26:12;18.00;;;8.10;;
39772;SDS011;25451;51.960;6.250;2024-03-22T07:28:37;20.93;;;8.40;;
39772;SDS011;25451;51.960;6.250;2024-03-22T07:31:03;19.00;;;8.30;;
39772;SDS011;25451;51.960;6.250;2024-03-22T07:33:28;21.35;;;8.48;;
39772;SDS011;25451;51.960;6.250;2024-03-22T07:35:53;19.43;;;8.80;;
39772;SDS011;25451;51.960;6.250;2024-03-22T07:38:19;19.33;;;8.50;;
39772;SDS011;25451;51.960;6.250;2024-03-22T07:40:45;19.27;;;8.40;;
39772;SDS011;25451;51.960;6.250;2024-03-22T07:43:10;21.37;;;8.33;;
39772;SDS011;25451;51.960;6.250;2024-03-22T07:45:36;20.00;;;8.45;;
39772;SDS011;25451;51.960;6.250;2024-03-22T07:48:02;22.50;;;8.80;;
39772;SDS011;25451;51.960;6.250;2024-03-22T07:50:27;18.50;;;8.05;;
39772;SDS011;25451;51.960;6.250;2024-03-22T07:52:53;19.10;;;8.23;;
39772;SDS011;25451;51.960;6.250;2024-03-22T07:55:18;21.57;;;8.67;;
39772;SDS011;25451;51.960;6.250;2024-03-22T07:57:43;19.97;;;8.73;;
39772;SDS011;25451;51.960;6.250;2024-03-22T08:00:09;20.27;;;8.30;;
39772;SDS011;25451;51.960;6.250;2024-03-22T08:02:35;17.92;;;8.65;;
39772;SDS011;25451;51.960;6.250;2024-03-22T08:05:00;19.93;;;7.97;;
39772;SDS011;25451;51.960;6.250;2024-03-22T08:07:26;19.58;;;9.18;;
39772;SDS011;25451;51.960;6.250;2024-03-22T08:09:52;20.93;;;8.70;;
39772;SDS011;25451;51.960;6.250;2024-03-22T08:12:17;20.83;;;8.60;;
39772;SDS011;25451;51.960;6.250;2024-03-22T08:14:44;23.33;;;8.90;;
39772;SDS011;25451;51.960;6.250;2024-03-22T08:17:10;20.42;;;8.68;;
39772;SDS011;25451;51.960;6.250;2024-03-22T08:19:35;20.27;;;9.23;;
39772;SDS011;25451;51.960;6.250;2024-03-22T08:22:02;21.25;;;9.13;;
39772;SDS011;25451;51.960;6.250;2024-03-22T08:24:27;21.37;;;8.57;;
39772;SDS011;25451;51.960;6.250;2024-03-22T08:26:52;21.20;;;8.87;;
39772;SDS011;25451;51.960;6.250;2024-03-22T08:29:18;20.10;;;9.02;;
39772;SDS011;25451;51.960;6.250;2024-03-22T08:31:44;22.90;;;9.47;;
39772;SDS011;25451;51.960;6.250;2024-03-22T08:34:09;21.03;;;9.03;;
39772;SDS011;25451;51.960;6.250;2024-03-22T08:36:34;20.57;;;8.73;;
39772;SDS011;25451;51.960;6.250;2024-03-22T08:38:59;20.07;;;9.30;;
39772;SDS011;25451;51.960;6.250;2024-03-22T08:41:25;20.27;;;9.05;;
39772;SDS011;25451;51.960;6.250;2024-03-22T08:43:50;19.40;;;8.80;;
39772;SDS011;25451;51.960;6.250;2024-03-22T08:46:15;20.10;;;9.50;;
39772;SDS011;25451;51.960;6.250;2024-03-22T08:48:41;20.70;;;8.53;;
39772;SDS011;25451;51.960;6.250;2024-03-22T08:51:06;23.17;;;9.67;;
39772;SDS011;25451;51.960;6.250;2024-03-22T08:53:31;21.23;;;9.27;;
39772;SDS011;25451;51.960;6.250;2024-03-22T08:55:57;20.70;;;8.90;;
39772;SDS011;25451;51.960;6.250;2024-03-22T08:58:22;19.83;;;8.90;;
39772;SDS011;25451;51.960;6.250;2024-03-22T09:00:47;23.50;;;9.60;;
39772;SDS011;25451;51.960;6.250;2024-03-22T09:03:13;23.97;;;9.83;;
39772;SDS011;25451;51.960;6.250;2024-03-22T09:05:39;20.80;;;10.00;;
39772;SDS011;25451;51.960;6.250;2024-03-22T09:08:06;22.33;;;9.77;;
39772;SDS011;25451;51.960;6.250;2024-03-22T09:10:31;24.37;;;10.90;;
39772;SDS011;25451;51.960;6.250;2024-03-22T09:12:56;22.40;;;9.90;;
39772;SDS011;25451;51.960;6.250;2024-03-22T09:15:21;21.77;;;9.97;;
39772;SDS011;25451;51.960;6.250;2024-03-22T09:17:47;22.83;;;10.53;;
39772;SDS011;25451;51.960;6.250;2024-03-22T09:20:12;22.90;;;10.53;;
39772;SDS011;25451;51.960;6.250;2024-03-22T09:22:38;23.35;;;10.23;;
39772;SDS011;25451;51.960;6.250;2024-03-22T09:25:04;25.47;;;11.10;;
39772;SDS011;25451;51.960;6.250;2024-03-22T09:27:30;22.50;;;10.02;;
39772;SDS011;25451;51.960;6.250;2024-03-22T09:29:56;24.43;;;10.00;;
39772;SDS011;25451;51.960;6.250;2024-03-22T09:32:21;23.70;;;10.10;;
39772;SDS011;25451;51.960;6.250;2024-03-22T09:34:48;24.20;;;10.57;;
39772;SDS011;25451;51.960;6.250;2024-03-22T09:37:15;21.20;;;10.43;;
39772;SDS011;25451;51.960;6.250;2024-03-22T09:39:40;26.30;;;10.40;;
39772;SDS011;25451;51.960;6.250;2024-03-22T09:42:05;26.60;;;10.98;;
39772;SDS011;25451;51.960;6.250;2024-03-22T09:44:31;27.77;;;11.20;;
39772;SDS011;25451;51.960;6.250;2024-03-22T09:46:57;25.88;;;10.25;;
39772;SDS011;25451;51.960;6.250;2024-03-22T09:49:24;22.95;;;10.43;;
39772;SDS011;25451;51.960;6.250;2024-03-22T09:51:50;21.83;;;9.87;;
39772;SDS011;25451;51.960;6.250;2024-03-22T09:54:16;25.33;;;10.27;;
39772;SDS011;25451;51.960;6.250;2024-03-22T09:56:42;25.80;;;11.33;;
39772;SDS011;25451;51.960;6.250;2024-03-22T09:59:08;23.63;;;10.57;;
39772;SDS011;25451;51.960;6.250;2024-03-22T10:01:35;23.40;;;10.73;;
39772;SDS011;25451;51.960;6.250;2024-03-22T10:04:02;21.83;;;10.02;;
39772;SDS011;25451;51.960;6.250;2024-03-22T10:06:28;24.17;;;10.40;;
39772;SDS011;25451;51.960;6.250;2024-03-22T10:08:57;24.95;;;10.13;;
39772;SDS011;25451;51.960;6.250;2024-03-22T10:11:25;24.40;;;10.88;;
39772;SDS011;25451;51.960;6.250;2024-03-22T10:13:51;22.50;;;10.38;;
39772;SDS011;25451;51.960;6.250;2024-03-22T10:16:16;22.55;;;10.30;;
39772;SDS011;25451;51.960;6.250;2024-03-22T10:18:42;21.38;;;9.80;;
39772;SDS011;25451;51.960;6.250;2024-03-22T10:21:07;24.70;;;10.13;;
39772;SDS011;25451;51.960;6.250;2024-03-22T10:23:32;26.63;;;10.90;;
39772;SDS011;25451;51.960;6.250;2024-03-22T10:25:58;24.27;;;10.40;;
39772;SDS011;25451;51.960;6.250;2024-03-22T10:28:27;22.73;;;9.80;;
39772;SDS011;25451;51.960;6.250;2024-03-22T10:30:53;23.05;;;10.27;;
39772;SDS011;25451;51.960;6.250;2024-03-22T10:33:19;22.97;;;10.13;;
39772;SDS011;25451;51.960;6.250;2024-03-22T10:35:46;21.25;;;10.15;;
39772;SDS011;25451;51.960;6.250;2024-03-22T10:38:12;21.38;;;8.93;;
39772;SDS011;25451;51.960;6.250;2024-03-22T10:40:38;21.97;;;9.40;;
39772;SDS011;25451;51.960;6.250;2024-03-22T10:43:05;22.40;;;9.30;;
39772;SDS011;25451;51.960;6.250;2024-03-22T10:45:30;19.10;;;9.67;;
39772;SDS011;25451;51.960;6.250;2024-03-22T10:47:56;22.27;;;9.07;;
39772;SDS011;25451;51.960;6.250;2024-03-22T10:50:22;20.60;;;9.27;;
39772;SDS011;25451;51.960;6.250;2024-03-22T10:52:52;19.58;;;8.55;;
39772;SDS011;25451;51.960;6.250;2024-03-22T10:55:43;19.67;;;9.02;;
39772;SDS011;25451;51.960;6.250;2024-03-22T10:58:17;18.85;;;9.00;;
39772;SDS011;25451;51.960;6.250;2024-03-22T11:00:42;23.23;;;9.40;;
39772;SDS011;25451;51.960;6.250;2024-03-22T11:03:08;19.95;;;9.38;;
39772;SDS011;25451;51.960;6.250;2024-03-22T11:05:34;21.02;;;8.70;;
39772;SDS011;25451;51.960;6.250;2024-03-22T11:08:03;23.57;;;9.47;;
39772;SDS011;25451;51.960;6.250;2024-03-22T11:10:35;18.73;;;9.25;;
39772;SDS011;25451;51.960;6.250;2024-03-22T11:13:03;20.67;;;9.13;;
39772;SDS011;25451;51.960;6.250;2024-03-22T11:15:30;19.70;;;9.00;;
39772;SDS011;25451;51.960;6.250;2024-03-22T11:17:56;22.20;;;9.38;;
39772;SDS011;25451;51.960;6.250;2024-03-22T11:20:22;22.17;;;9.77;;
39772;SDS011;25451;51.960;6.250;2024-03-22T11:22:47;20.05;;;9.10;;
39772;SDS011;25451;51.960;6.250;2024-03-22T11:25:13;23.17;;;9.73;;
39772;SDS011;25451;51.960;6.250;2024-03-22T11:27:38;19.43;;;9.10;;
39772;SDS011;25451;51.960;6.250;2024-03-22T11:30:03;23.67;;;9.63;;
39772;SDS011;25451;51.960;6.250;2024-03-22T11:32:29;19.27;;;9.35;;
39772;SDS011;25451;51.960;6.250;2024-03-22T11:34:55;25.00;;;9.87;;
39772;SDS011;25451;51.960;6.250;2024-03-22T11:37:20;24.48;;;10.75;;
39772;SDS011;25451;51.960;6.250;2024-03-22T11:39:46;18.80;;;8.80;;
39772;SDS011;25451;51.960;6.250;2024-03-22T11:42:11;19.57;;;9.30;;
39772;SDS011;25451;51.960;6.250;2024-03-22T11:44:37;20.52;;;9.07;;
39772;SDS011;25451;51.960;6.250;2024-03-22T11:47:05;21.47;;;8.87;;
39772;SDS011;25451;51.960;6.250;2024-03-22T11:49:30;17.67;;;8.25;;
39772;SDS011;25451;51.960;6.250;2024-03-22T11:51:56;19.33;;;8.47;;
39772;SDS011;25451;51.960;6.250;2024-03-22T11:54:22;17.25;;;8.43;;
39772;SDS011;25451;51.960;6.250;2024-03-22T11:56:48;19.10;;;8.47;;
39772;SDS011;25451;51.960;6.250;2024-03-22T11:59:13;16.30;;;7.80;;
39772;SDS011;25451;51.960;6.250;2024-03-22T12:01:40;15.30;;;7.30;;
39772;SDS011;25451;51.960;6.250;2024-03-22T12:04:05;17.70;;;8.10;;
39772;SDS011;25451;51.960;6.250;2024-03-22T12:06:33;14.68;;;7.38;;
39772;SDS011;25451;51.960;6.250;2024-03-22T12:08:59;15.52;;;7.80;;
39772;SDS011;25451;51.960;6.250;2024-03-22T12:11:25;18.07;;;7.67;;
39772;SDS011;25451;51.960;6.250;2024-03-22T12:13:50;15.07;;;7.47;;
39772;SDS011;25451;51.960;6.250;2024-03-22T12:16:15;14.40;;;7.30;;
39772;SDS011;25451;51.960;6.250;2024-03-22T12:18:40;14.37;;;7.33;;
39772;SDS011;25451;51.960;6.250;2024-03-22T12:21:06;15.07;;;7.27;;
39772;SDS011;25451;51.960;6.250;2024-03-22T12:23:32;15.43;;;7.05;;
39772;SDS011;25451;51.960;6.250;2024-03-22T12:25:57;13.60;;;6.70;;
39772;SDS011;25451;51.960;6.250;2024-03-22T12:28:22;11.73;;;6.23;;
39772;SDS011;25451;51.960;6.250;2024-03-22T12:30:49;12.03;;;6.23;;
39772;SDS011;25451;51.960;6.250;2024-03-22T12:33:14;12.73;;;6.75;;
39772;SDS011;25451;51.960;6.250;2024-03-22T12:35:40;11.47;;;6.50;;
39772;SDS011;25451;51.960;6.250;2024-03-22T12:38:05;12.67;;;6.07;;
39772;SDS011;25451;51.960;6.250;2024-03-22T12:40:32;14.02;;;6.20;;
39772;SDS011;25451;51.960;6.250;2024-03-22T12:42:58;9.32;;;5.18;;
39772;SDS011;25451;51.960;6.250;2024-03-22T12:45:23;9.97;;;5.07;;
39772;SDS011;25451;51.960;6.250;2024-03-22T12:47:49;9.93;;;5.15;;
39772;SDS011;25451;51.960;6.250;2024-03-22T12:50:14;9.75;;;5.22;;
39772;SDS011;25451;51.960;6.250;2024-03-22T12:52:40;7.93;;;4.57;;
39772;SDS011;25451;51.960;6.250;2024-03-22T12:55:05;8.73;;;5.03;;
39772;SDS011;25451;51.960;6.250;2024-03-22T12:57:31;7.57;;;4.10;;
39772;SDS011;25451;51.960;6.250;2024-03-22T12:59:57;7.67;;;4.20;;
39772;SDS011;25451;51.960;6.250;2024-03-22T13:02:23;9.15;;;3.83;;
39772;SDS011;25451;51.960;6.250;2024-03-22T13:04:49;7.07;;;3.63;;
39772;SDS011;25451;51.960;6.250;2024-03-22T13:07:15;7.15;;;4.00;;
39772;SDS011;25451;51.960;6.250;2024-03-22T13:09:41;8.63;;;4.37;;
39772;SDS011;25451;51.960;6.250;2024-03-22T13:12:06;9.30;;;3.97;;
39772;SDS011;25451;51.960;6.250;2024-03-22T13:14:32;9.20;;;4.18;;
39772;SDS011;25451;51.960;6.250;2024-03-22T13:16:58;6.57;;;3.93;;
39772;SDS011;25451;51.960;6.250;2024-03-22T13:19:23;6.67;;;3.70;;
39772;SDS011;25451;51.960;6.250;2024-03-22T13:21:48;7.00;;;3.50;;
39772;SDS011;25451;51.960;6.250;2024-03-22T13:24:14;6.22;;;3.58;;
39772;SDS011;25451;51.960;6.250;2024-03-22T13:26:40;5.87;;;3.23;;
39772;SDS011;25451;51.960;6.250;2024-03-22T13:29:05;6.47;;;3.20;;
39772;SDS011;25451;51.960;6.250;2024-03-22T13:31:30;5.03;;;3.13;;
39772;SDS011;25451;51.960;6.250;2024-03-22T13:33:55;5.60;;;3.40;;
39772;SDS011;25451;51.960;6.250;2024-03-22T13:36:21;5.80;;;3.23;;
39772;SDS011;25451;51.960;6.250;2024-03-22T13:38:46;5.37;;;3.13;;
39772;SDS011;25451;51.960;6.250;2024-03-22T13:41:12;5.30;;;2.90;;
39772;SDS011;25451;51.960;6.250;2024-03-22T13:43:37;5.07;;;2.77;;
39772;SDS011;25451;51.960;6.250;2024-03-22T13:46:05;4.88;;;2.63;;
39772;SDS011;25451;51.960;6.250;2024-03-22T13:48:30;6.77;;;2.80;;
39772;SDS011;25451;51.960;6.250;2024-03-22T13:50:55;4.77;;;2.60;;
39772;SDS011;25451;51.960;6.250;2024-03-22T13:53:21;5.05;;;3.10;;
39772;SDS011;25451;51.960;6.250;2024-03-22T13:55:47;4.37;;;2.60;;
39772;SDS011;25451;51.960;6.250;2024-03-22T13:58:13;5.78;;;2.88;;
39772;SDS011;25451;51.960;6.250;2024-03-22T14:00:38;4.67;;;2.70;;
39772;SDS011;25451;51.960;6.250;2024-03-22T14:03:04;6.47;;;2.93;;
39772;SDS011;25451;51.960;6.250;2024-03-22T14:05:29;5.72;;;2.83;;
39772;SDS011;25451;51.960;6.250;2024-03-22T14:07:56;5.07;;;2.85;;
39772;SDS011;25451;51.960;6.250;2024-03-22T14:10:21;6.18;;;2.60;;
39772;SDS011;25451;51.960;6.250;2024-03-22T14:12:47;4.55;;;2.72;;
39772;SDS011;25451;51.960;6.250;2024-03-22T14:15:14;4.13;;;2.55;;
39772;SDS011;25451;51.960;6.250;2024-03-22T14:17:39;3.72;;;2.33;;
39772;SDS011;25451;51.960;6.250;2024-03-22T14:20:05;3.87;;;2.43;;